sensor_id;sensor_type;location;lat;lon;timestamp;pressure;altitude;pressure_sealevel;temperature;humidity
18201;BME280;9226;47.858;9.594;2022-09-09T00:02:18;94996.53;;;16.68;68.54
18201;BME280;9226;47.858;9.594;2022-09-09T00:05:38;94995.56;;;16.69;67.98
18201;BME280;9226;47.858;9.594;2022-09-09T00:07:45;94995.25;;;16.64;68.94
18201;BME280;9226;47.858;9.594;2022-09-09T00:21:30;94986.91;;;16.59;68.95
18201;BME280;9226;47.858;9.594;2022-09-09T00:23:58;94985.22;;;16.58;68.74
18201;BME280;9226;47.858;9.594;2022-09-09T00:29:03;94991.91;;;16.62;68.78
18201;BME280;9226;47.858;9.594;2022-09-09T00:31:32;94981.38;;;16.60;68.76
18201;BME280;9226;47.858;9.594;2022-09-09T00:34:21;94985.22;;;16.58;69.29
18201;BME280;9226;47.858;9.594;2022-09-09T00:36:49;94975.84;;;16.54;69.26
18201;BME280;9226;47.858;9.594;2022-09-09T00:39:44;94981.72;;;16.49;69.71
18201;BME280;9226;47.858;9.594;2022-09-09T00:42:30;94976.19;;;16.51;69.66
18201;BME280;9226;47.858;9.594;2022-09-09T00:45:18;94979.94;;;16.41;70.08
18201;BME280;9226;47.858;9.594;2022-09-09T00:47:52;94990.13;;;16.38;70.69
18201;BME280;9226;47.858;9.594;2022-09-09T00:58:24;94973.63;;;16.26;70.12
18201;BME280;9226;47.858;9.594;2022-09-09T01:00:57;94987.81;;;16.26;69.66
18201;BME280;9226;47.858;9.594;2022-09-09T01:06:30;94980.97;;;16.16;70.31
18201;BME280;9226;47.858;9.594;2022-09-09T01:14:35;94969.09;;;16.18;70.65
18201;BME280;9226;47.858;9.594;2022-09-09T01:17:30;94971.94;;;16.17;71.32
18201;BME280;9226;47.858;9.594;2022-09-09T01:22:58;94953.72;;;16.12;72.33
18201;BME280;9226;47.858;9.594;2022-09-09T01:28:14;94953.56;;;16.14;71.41
18201;BME280;9226;47.858;9.594;2022-09-09T01:30:42;94955.06;;;16.16;70.89
18201;BME280;9226;47.858;9.594;2022-09-09T01:33:14;94954.22;;;16.16;71.32
18201;BME280;9226;47.858;9.594;2022-09-09T01:35:55;94955.25;;;16.15;70.92
18201;BME280;9226;47.858;9.594;2022-09-09T01:38:23;94949.72;;;16.08;71.26
18201;BME280;9226;47.858;9.594;2022-09-09T01:40:50;94952.25;;;16.01;71.72
18201;BME280;9226;47.858;9.594;2022-09-09T01:43:19;94942.56;;;16.00;71.72
18201;BME280;9226;47.858;9.594;2022-09-09T01:45:46;94940.88;;;15.99;71.99
18201;BME280;9226;47.858;9.594;2022-09-09T01:48:15;94944.91;;;15.95;72.25
18201;BME280;9226;47.858;9.594;2022-09-09T01:50:40;94943.91;;;15.96;72.37
18201;BME280;9226;47.858;9.594;2022-09-09T01:53:06;94933.19;;;15.96;72.34
18201;BME280;9226;47.858;9.594;2022-09-09T01:55:40;94931.00;;;16.00;72.29
18201;BME280;9226;47.858;9.594;2022-09-09T02:03:31;94932.53;;;16.02;72.75
18201;BME280;9226;47.858;9.594;2022-09-09T02:11:08;94924.19;;;15.97;72.29
18201;BME280;9226;47.858;9.594;2022-09-09T02:13:37;94928.50;;;15.98;72.16
18201;BME280;9226;47.858;9.594;2022-09-09T02:18:56;94936.53;;;15.98;72.59
18201;BME280;9226;47.858;9.594;2022-09-09T02:21:23;94935.53;;;15.99;72.67
18201;BME280;9226;47.858;9.594;2022-09-09T02:23:50;94934.53;;;16.00;72.24
18201;BME280;9226;47.858;9.594;2022-09-09T02:26:19;94929.53;;;15.97;72.59
18201;BME280;9226;47.858;9.594;2022-09-09T02:28:49;94929.53;;;15.97;72.53
18201;BME280;9226;47.858;9.594;2022-09-09T02:31:18;94927.19;;;15.94;73.24
18201;BME280;9226;47.858;9.594;2022-09-09T02:33:54;94936.03;;;15.95;72.99
18201;BME280;9226;47.858;9.594;2022-09-09T02:36:23;94941.41;;;15.95;72.93
18201;BME280;9226;47.858;9.594;2022-09-09T02:38:52;94941.56;;;15.93;73.18
18201;BME280;9226;47.858;9.594;2022-09-09T02:41:28;94940.06;;;15.90;73.90
18201;BME280;9226;47.858;9.594;2022-09-09T02:44:00;94948.75;;;15.93;73.09
18201;BME280;9226;47.858;9.594;2022-09-09T02:49:09;94954.28;;;15.83;74.80
18201;BME280;9226;47.858;9.594;2022-09-09T02:54:27;94963.97;;;15.76;75.50
18201;BME280;9226;47.858;9.594;2022-09-09T02:57:02;94968.34;;;15.85;74.24
18201;BME280;9226;47.858;9.594;2022-09-09T02:59:30;94963.31;;;15.82;75.03
18201;BME280;9226;47.858;9.594;2022-09-09T03:01:56;94970.66;;;15.88;75.36
18201;BME280;9226;47.858;9.594;2022-09-09T03:04:21;94963.97;;;15.92;75.98
18201;BME280;9226;47.858;9.594;2022-09-09T03:06:47;94970.31;;;15.99;75.83
18201;BME280;9226;47.858;9.594;2022-09-09T03:09:12;94964.47;;;16.04;76.87
18201;BME280;9226;47.858;9.594;2022-09-09T03:11:38;94973.63;;;16.09;76.47
18201;BME280;9226;47.858;9.594;2022-09-09T03:14:04;94971.63;;;16.20;76.79
18201;BME280;9226;47.858;9.594;2022-09-09T03:16:30;94976.94;;;16.28;76.30
18201;BME280;9226;47.858;9.594;2022-09-09T03:18:55;94978.78;;;16.27;76.78
18201;BME280;9226;47.858;9.594;2022-09-09T03:21:20;94977.78;;;16.37;75.95
18201;BME280;9226;47.858;9.594;2022-09-09T03:23:46;94974.91;;;16.38;76.47
18201;BME280;9226;47.858;9.594;2022-09-09T03:26:12;94981.25;;;16.45;76.25
18201;BME280;9226;47.858;9.594;2022-09-09T03:28:40;94978.69;;;16.52;76.01
18201;BME280;9226;47.858;9.594;2022-09-09T03:31:06;94979.03;;;16.57;76.05
18201;BME280;9226;47.858;9.594;2022-09-09T03:33:38;94980.69;;;16.58;76.40
18201;BME280;9226;47.858;9.594;2022-09-09T03:36:05;94973.81;;;16.64;77.03
18201;BME280;9226;47.858;9.594;2022-09-09T03:38:30;94976.81;;;16.69;76.20
18201;BME280;9226;47.858;9.594;2022-09-09T03:40:57;94970.91;;;16.74;77.19
18201;BME280;9226;47.858;9.594;2022-09-09T03:43:24;94973.44;;;16.75;77.54
18201;BME280;9226;47.858;9.594;2022-09-09T03:45:50;94974.25;;;16.76;77.27
18201;BME280;9226;47.858;9.594;2022-09-09T03:48:16;94985.13;;;16.74;75.70
18201;BME280;9226;47.858;9.594;2022-09-09T03:50:52;94980.06;;;16.48;75.32
18201;BME280;9226;47.858;9.594;2022-09-09T03:53:20;94984.91;;;16.44;74.38
18201;BME280;9226;47.858;9.594;2022-09-09T03:55:47;94987.13;;;16.33;74.70
18201;BME280;9226;47.858;9.594;2022-09-09T03:58:14;94990.66;;;16.25;74.73
18201;BME280;9226;47.858;9.594;2022-09-09T04:00:39;94985.47;;;16.23;74.77
18201;BME280;9226;47.858;9.594;2022-09-09T04:03:08;94989.19;;;16.14;74.52
18201;BME280;9226;47.858;9.594;2022-09-09T04:05:34;94985.38;;;15.92;75.80
18201;BME280;9226;47.858;9.594;2022-09-09T04:07:59;94982.53;;;15.77;76.32
18201;BME280;9226;47.858;9.594;2022-09-09T04:10:25;94984.38;;;15.85;75.66
18201;BME280;9226;47.858;9.594;2022-09-09T04:12:51;94985.69;;;15.89;76.51
18201;BME280;9226;47.858;9.594;2022-09-09T04:15:17;94981.34;;;15.96;76.85
18201;BME280;9226;47.858;9.594;2022-09-09T04:17:43;94984.69;;;15.98;77.17
18201;BME280;9226;47.858;9.594;2022-09-09T04:20:08;94977.84;;;16.04;77.59
18201;BME280;9226;47.858;9.594;2022-09-09T04:22:37;94973.78;;;16.08;77.08
18201;BME280;9226;47.858;9.594;2022-09-09T04:25:05;94988.69;;;16.10;77.24
18201;BME280;9226;47.858;9.594;2022-09-09T04:27:31;94995.38;;;15.98;78.43
18201;BME280;9226;47.858;9.594;2022-09-09T04:29:57;94996.06;;;15.84;77.85
18201;BME280;9226;47.858;9.594;2022-09-09T04:32:22;95003.75;;;15.70;77.08
18201;BME280;9226;47.858;9.594;2022-09-09T04:34:48;95003.69;;;15.21;78.79
18201;BME280;9226;47.858;9.594;2022-09-09T04:37:14;95002.50;;;15.07;79.75
18201;BME280;9226;47.858;9.594;2022-09-09T04:39:39;95004.00;;;15.10;79.04
18201;BME280;9226;47.858;9.594;2022-09-09T04:42:05;94995.97;;;15.10;78.92
18201;BME280;9226;47.858;9.594;2022-09-09T04:44:30;94997.84;;;15.17;78.28
18201;BME280;9226;47.858;9.594;2022-09-09T04:46:56;94999.69;;;15.25;78.35
18201;BME280;9226;47.858;9.594;2022-09-09T04:49:21;95001.38;;;15.34;77.87
18201;BME280;9226;47.858;9.594;2022-09-09T04:51:49;94994.69;;;15.38;78.29
18201;BME280;9226;47.858;9.594;2022-09-09T04:54:14;94991.34;;;15.28;79.87
18201;BME280;9226;47.858;9.594;2022-09-09T04:56:40;95003.50;;;15.23;80.12
18201;BME280;9226;47.858;9.594;2022-09-09T04:59:06;95004.72;;;15.36;79.03
18201;BME280;9226;47.858;9.594;2022-09-09T05:01:32;95001.53;;;15.33;79.77
18201;BME280;9226;47.858;9.594;2022-09-09T05:03:57;95007.72;;;15.33;79.99
18201;BME280;9226;47.858;9.594;2022-09-09T05:06:23;95005.38;;;15.30;79.84
18201;BME280;9226;47.858;9.594;2022-09-09T05:08:49;95005.69;;;15.11;80.79
18201;BME280;9226;47.858;9.594;2022-09-09T05:11:20;95007.88;;;15.24;79.65
18201;BME280;9226;47.858;9.594;2022-09-09T05:13:48;95006.06;;;15.32;79.67
18201;BME280;9226;47.858;9.594;2022-09-09T05:16:16;95003.72;;;15.37;79.82
18201;BME280;9226;47.858;9.594;2022-09-09T05:18:42;95007.72;;;15.42;79.60
18201;BME280;9226;47.858;9.594;2022-09-09T05:21:09;95008.09;;;15.47;79.78
18201;BME280;9226;47.858;9.594;2022-09-09T05:23:35;95012.78;;;15.53;80.06
18201;BME280;9226;47.858;9.594;2022-09-09T05:26:00;95021.13;;;15.58;79.75
18201;BME280;9226;47.858;9.594;2022-09-09T05:28:27;95024.47;;;15.60;80.19
18201;BME280;9226;47.858;9.594;2022-09-09T05:30:59;95028.81;;;15.69;79.52
18201;BME280;9226;47.858;9.594;2022-09-09T05:33:26;95026.81;;;15.71;80.00
18201;BME280;9226;47.858;9.594;2022-09-09T05:35:59;95028.19;;;15.84;79.31
18201;BME280;9226;47.858;9.594;2022-09-09T05:38:27;95029.84;;;15.93;78.91
18201;BME280;9226;47.858;9.594;2022-09-09T05:40:53;95026.81;;;16.04;78.81
18201;BME280;9226;47.858;9.594;2022-09-09T05:43:19;95027.16;;;16.01;79.19
18201;BME280;9226;47.858;9.594;2022-09-09T05:45:46;95023.34;;;15.96;79.33
18201;BME280;9226;47.858;9.594;2022-09-09T05:48:15;95037.56;;;15.88;80.05
18201;BME280;9226;47.858;9.594;2022-09-09T05:50:42;95031.34;;;15.79;80.30
18201;BME280;9226;47.858;9.594;2022-09-09T05:53:08;95025.13;;;15.54;80.50
18201;BME280;9226;47.858;9.594;2022-09-09T05:55:34;95041.81;;;15.48;79.79
18201;BME280;9226;47.858;9.594;2022-09-09T05:57:59;95040.69;;;14.91;82.18
18201;BME280;9226;47.858;9.594;2022-09-09T06:00:25;95038.53;;;15.03;81.77
18201;BME280;9226;47.858;9.594;2022-09-09T06:02:52;95042.91;;;15.12;80.93
18201;BME280;9226;47.858;9.594;2022-09-09T06:05:18;95039.44;;;15.12;81.09
18201;BME280;9226;47.858;9.594;2022-09-09T06:07:43;95035.41;;;15.16;81.63
18201;BME280;9226;47.858;9.594;2022-09-09T06:10:10;95030.41;;;15.21;81.49
18201;BME280;9226;47.858;9.594;2022-09-09T06:12:39;95033.22;;;15.19;82.98
18201;BME280;9226;47.858;9.594;2022-09-09T06:15:04;95033.06;;;15.21;84.28
18201;BME280;9226;47.858;9.594;2022-09-09T06:17:30;95036.75;;;15.20;84.97
18201;BME280;9226;47.858;9.594;2022-09-09T06:19:56;95033.44;;;15.26;85.23
18201;BME280;9226;47.858;9.594;2022-09-09T06:22:22;95034.28;;;15.35;85.51
18201;BME280;9226;47.858;9.594;2022-09-09T06:24:47;95031.44;;;15.45;85.58
18201;BME280;9226;47.858;9.594;2022-09-09T06:27:13;95037.50;;;15.55;86.32
18201;BME280;9226;47.858;9.594;2022-09-09T06:29:39;95041.00;;;15.64;85.75
18201;BME280;9226;47.858;9.594;2022-09-09T06:32:04;95036.88;;;15.78;85.05
18201;BME280;9226;47.858;9.594;2022-09-09T06:34:29;95042.38;;;15.84;84.69
18201;BME280;9226;47.858;9.594;2022-09-09T06:36:55;95048.56;;;15.93;85.32
18201;BME280;9226;47.858;9.594;2022-09-09T06:39:23;95041.72;;;16.07;83.52
18201;BME280;9226;47.858;9.594;2022-09-09T06:41:48;95042.19;;;16.19;83.50
18201;BME280;9226;47.858;9.594;2022-09-09T06:44:15;95052.72;;;16.28;83.54
18201;BME280;9226;47.858;9.594;2022-09-09T06:46:40;95048.53;;;16.34;83.24
18201;BME280;9226;47.858;9.594;2022-09-09T06:49:08;95049.16;;;16.44;82.76
18201;BME280;9226;47.858;9.594;2022-09-09T06:51:35;95045.16;;;16.49;82.75
18201;BME280;9226;47.858;9.594;2022-09-09T06:54:02;95046.16;;;16.56;82.37
18201;BME280;9226;47.858;9.594;2022-09-09T06:56:29;95047.78;;;16.65;82.38
18201;BME280;9226;47.858;9.594;2022-09-09T06:58:57;95053.47;;;16.70;82.37
18201;BME280;9226;47.858;9.594;2022-09-09T07:01:28;95055.97;;;16.80;82.06
18201;BME280;9226;47.858;9.594;2022-09-09T07:03:56;95053.34;;;16.63;82.45
18201;BME280;9226;47.858;9.594;2022-09-09T07:06:28;95052.00;;;16.59;81.99
18201;BME280;9226;47.858;9.594;2022-09-09T07:08:57;95060.59;;;16.38;82.78
18201;BME280;9226;47.858;9.594;2022-09-09T07:11:26;95063.94;;;16.40;82.12
18201;BME280;9226;47.858;9.594;2022-09-09T07:13:56;95057.22;;;16.44;82.45
18201;BME280;9226;47.858;9.594;2022-09-09T07:16:23;95061.25;;;16.40;82.21
18201;BME280;9226;47.858;9.594;2022-09-09T07:18:53;95062.91;;;16.50;81.98
18201;BME280;9226;47.858;9.594;2022-09-09T07:21:23;95076.13;;;16.51;81.63
18201;BME280;9226;47.858;9.594;2022-09-09T07:23:49;95068.91;;;16.52;82.43
18201;BME280;9226;47.858;9.594;2022-09-09T07:26:17;95061.56;;;16.45;82.22
18201;BME280;9226;47.858;9.594;2022-09-09T07:28:44;95072.59;;;16.51;83.18
18201;BME280;9226;47.858;9.594;2022-09-09T07:31:15;95068.25;;;16.58;83.57
18201;BME280;9226;47.858;9.594;2022-09-09T07:33:42;95072.69;;;16.82;82.24
18201;BME280;9226;47.858;9.594;2022-09-09T07:36:24;95072.50;;;16.83;83.27
18201;BME280;9226;47.858;9.594;2022-09-09T07:39:04;95067.16;;;16.92;83.37
18201;BME280;9226;47.858;9.594;2022-09-09T07:41:38;95072.94;;;17.12;82.11
18201;BME280;9226;47.858;9.594;2022-09-09T07:44:06;95076.22;;;17.30;82.00
18201;BME280;9226;47.858;9.594;2022-09-09T07:46:33;95072.31;;;17.41;81.77
18201;BME280;9226;47.858;9.594;2022-09-09T07:48:59;95073.56;;;17.53;81.68
18201;BME280;9226;47.858;9.594;2022-09-09T07:51:28;95071.84;;;17.61;80.83
18201;BME280;9226;47.858;9.594;2022-09-09T07:53:56;95072.50;;;17.63;80.10
18201;BME280;9226;47.858;9.594;2022-09-09T07:56:26;95083.91;;;17.65;79.84
18201;BME280;9226;47.858;9.594;2022-09-09T07:58:53;95082.75;;;17.59;79.74
18201;BME280;9226;47.858;9.594;2022-09-09T08:01:27;95081.97;;;17.50;80.58
18201;BME280;9226;47.858;9.594;2022-09-09T08:04:01;95085.31;;;17.52;81.02
18201;BME280;9226;47.858;9.594;2022-09-09T08:06:30;95080.06;;;17.59;81.04
18201;BME280;9226;47.858;9.594;2022-09-09T08:08:57;95083.41;;;17.61;80.66
18201;BME280;9226;47.858;9.594;2022-09-09T08:11:24;95075.69;;;17.66;81.43
18201;BME280;9226;47.858;9.594;2022-09-09T08:13:51;95077.03;;;17.94;81.46
18201;BME280;9226;47.858;9.594;2022-09-09T08:16:22;95084.16;;;18.24;81.79
18201;BME280;9226;47.858;9.594;2022-09-09T08:18:48;95083.31;;;18.47;80.52
18201;BME280;9226;47.858;9.594;2022-09-09T08:21:23;95079.78;;;18.61;79.13
18201;BME280;9226;47.858;9.594;2022-09-09T08:23:51;95085.97;;;18.85;78.21
18201;BME280;9226;47.858;9.594;2022-09-09T08:26:21;95098.16;;;18.73;76.61
18201;BME280;9226;47.858;9.594;2022-09-09T08:28:53;95095.38;;;18.81;76.88
18201;BME280;9226;47.858;9.594;2022-09-09T08:31:20;95086.31;;;18.82;76.65
18201;BME280;9226;47.858;9.594;2022-09-09T08:33:47;95098.66;;;18.91;77.33
18201;BME280;9226;47.858;9.594;2022-09-09T08:36:17;95087.13;;;18.83;76.95
18201;BME280;9226;47.858;9.594;2022-09-09T08:38:47;95105.06;;;18.90;76.22
18201;BME280;9226;47.858;9.594;2022-09-09T08:41:30;95097.63;;;18.92;75.86
18201;BME280;9226;47.858;9.594;2022-09-09T08:52:17;95111.09;;;19.07;74.35
18201;BME280;9226;47.858;9.594;2022-09-09T08:54:44;95104.97;;;18.98;75.67
18201;BME280;9226;47.858;9.594;2022-09-09T08:57:20;95113.66;;;19.01;75.89
18201;BME280;9226;47.858;9.594;2022-09-09T08:59:47;95112.28;;;18.90;76.55
18201;BME280;9226;47.858;9.594;2022-09-09T09:02:38;95115.53;;;19.15;75.67
18201;BME280;9226;47.858;9.594;2022-09-09T09:05:28;95109.97;;;19.16;74.82
18201;BME280;9226;47.858;9.594;2022-09-09T09:10:54;95107.97;;;19.55;75.14
18201;BME280;9226;47.858;9.594;2022-09-09T09:13:40;95108.69;;;19.79;74.45
18201;BME280;9226;47.858;9.594;2022-09-09T09:16:32;95106.88;;;19.86;73.21
18201;BME280;9226;47.858;9.594;2022-09-09T09:19:00;95099.16;;;20.19;72.66
18201;BME280;9226;47.858;9.594;2022-09-09T09:21:48;95102.94;;;20.25;70.81
18201;BME280;9226;47.858;9.594;2022-09-09T09:24:46;95100.88;;;20.27;70.69
18201;BME280;9226;47.858;9.594;2022-09-09T09:27:25;95093.06;;;20.32;70.58
18201;BME280;9226;47.858;9.594;2022-09-09T09:29:56;95100.75;;;20.35;70.86
18201;BME280;9226;47.858;9.594;2022-09-09T09:32:24;95095.88;;;20.24;70.98
18201;BME280;9226;47.858;9.594;2022-09-09T09:34:55;95103.69;;;20.19;71.51
18201;BME280;9226;47.858;9.594;2022-09-09T09:37:31;95101.53;;;20.08;71.10
18201;BME280;9226;47.858;9.594;2022-09-09T09:40:11;95103.38;;;20.29;71.21
18201;BME280;9226;47.858;9.594;2022-09-09T09:42:38;95104.06;;;20.59;70.20
18201;BME280;9226;47.858;9.594;2022-09-09T09:45:20;95102.28;;;20.94;70.25
18201;BME280;9226;47.858;9.594;2022-09-09T09:48:05;95100.66;;;21.42;68.13
18201;BME280;9226;47.858;9.594;2022-09-09T09:50:32;95097.78;;;22.12;69.27
18201;BME280;9226;47.858;9.594;2022-09-09T09:53:05;95105.69;;;22.13;63.79
18201;BME280;9226;47.858;9.594;2022-09-09T09:55:33;95100.56;;;22.38;61.43
18201;BME280;9226;47.858;9.594;2022-09-09T09:58:06;95096.19;;;22.31;62.12
18201;BME280;9226;47.858;9.594;2022-09-09T10:00:33;95093.91;;;22.34;61.99
18201;BME280;9226;47.858;9.594;2022-09-09T10:03:00;95090.78;;;22.31;62.16
18201;BME280;9226;47.858;9.594;2022-09-09T10:05:29;95085.97;;;22.19;62.40
18201;BME280;9226;47.858;9.594;2022-09-09T10:16:27;95084.94;;;23.07;59.34
18201;BME280;9226;47.858;9.594;2022-09-09T10:27:24;95080.78;;;24.72;54.36
18201;BME280;9226;47.858;9.594;2022-09-09T10:30:16;95079.41;;;24.63;52.25
18201;BME280;9226;47.858;9.594;2022-09-09T10:32:46;95082.84;;;24.77;53.08
18201;BME280;9226;47.858;9.594;2022-09-09T10:35:35;95071.97;;;24.77;53.51
18201;BME280;9226;47.858;9.594;2022-09-09T10:40:58;95061.19;;;24.70;49.79
18201;BME280;9226;47.858;9.594;2022-09-09T10:49:13;95055.69;;;24.52;51.36
18201;BME280;9226;47.858;9.594;2022-09-09T10:51:56;95054.72;;;24.14;51.90
18201;BME280;9226;47.858;9.594;2022-09-09T10:57:23;95058.47;;;23.75;52.30
18201;BME280;9226;47.858;9.594;2022-09-09T10:59:48;95060.81;;;23.64;53.61
18201;BME280;9226;47.858;9.594;2022-09-09T11:02:26;95053.50;;;23.65;53.93
18201;BME280;9226;47.858;9.594;2022-09-09T11:05:03;95065.25;;;23.52;55.09
18201;BME280;9226;47.858;9.594;2022-09-09T11:07:41;95061.06;;;23.56;54.44
18201;BME280;9226;47.858;9.594;2022-09-09T11:12:47;95059.66;;;23.47;53.32
18201;BME280;9226;47.858;9.594;2022-09-09T11:15:20;95057.97;;;23.46;53.89
18201;BME280;9226;47.858;9.594;2022-09-09T11:17:58;95062.38;;;23.34;52.97
18201;BME280;9226;47.858;9.594;2022-09-09T11:20:26;95051.97;;;23.37;53.33
18201;BME280;9226;47.858;9.594;2022-09-09T11:22:59;95045.56;;;23.18;53.72
18201;BME280;9226;47.858;9.594;2022-09-09T11:25:37;95049.28;;;23.30;54.25
18201;BME280;9226;47.858;9.594;2022-09-09T11:28:28;95046.16;;;23.34;53.92
18201;BME280;9226;47.858;9.594;2022-09-09T11:37:01;95060.06;;;23.89;52.07
18201;BME280;9226;47.858;9.594;2022-09-09T11:39:47;95055.56;;;24.08;50.85
18201;BME280;9226;47.858;9.594;2022-09-09T11:42:22;95050.63;;;24.30;52.20
18201;BME280;9226;47.858;9.594;2022-09-09T11:44:49;95055.91;;;23.93;50.96
18201;BME280;9226;47.858;9.594;2022-09-09T11:47:26;95050.47;;;23.93;51.34
18201;BME280;9226;47.858;9.594;2022-09-09T11:52:41;95058.78;;;23.98;52.33
18201;BME280;9226;47.858;9.594;2022-09-09T11:55:11;95055.50;;;23.83;49.95
18201;BME280;9226;47.858;9.594;2022-09-09T11:57:38;95053.91;;;23.69;49.58
18201;BME280;9226;47.858;9.594;2022-09-09T12:00:04;95055.53;;;23.76;49.77
18201;BME280;9226;47.858;9.594;2022-09-09T12:02:31;95061.53;;;23.92;50.91
18201;BME280;9226;47.858;9.594;2022-09-09T12:05:11;95073.06;;;23.67;48.19
18201;BME280;9226;47.858;9.594;2022-09-09T12:07:42;95060.50;;;23.86;48.50
18201;BME280;9226;47.858;9.594;2022-09-09T12:10:22;95063.44;;;23.84;48.36
18201;BME280;9226;47.858;9.594;2022-09-09T12:12:49;95066.31;;;23.96;48.88
18201;BME280;9226;47.858;9.594;2022-09-09T12:17:44;95063.31;;;24.05;47.91
18201;BME280;9226;47.858;9.594;2022-09-09T12:22:51;95065.09;;;23.86;47.27
18201;BME280;9226;47.858;9.594;2022-09-09T12:25:47;95053.00;;;23.88;47.07
18201;BME280;9226;47.858;9.594;2022-09-09T12:28:39;95049.94;;;24.10;48.56
18201;BME280;9226;47.858;9.594;2022-09-09T12:31:14;95051.56;;;24.17;46.62
18201;BME280;9226;47.858;9.594;2022-09-09T12:33:44;95057.03;;;24.11;46.08
18201;BME280;9226;47.858;9.594;2022-09-09T12:36:17;95059.53;;;24.12;46.24
18201;BME280;9226;47.858;9.594;2022-09-09T12:38:45;95050.59;;;24.37;46.35
18201;BME280;9226;47.858;9.594;2022-09-09T12:41:25;95047.13;;;23.98;45.01
18201;BME280;9226;47.858;9.594;2022-09-09T12:44:03;95044.28;;;24.18;45.29
18201;BME280;9226;47.858;9.594;2022-09-09T12:46:39;95048.16;;;23.97;44.84
18201;BME280;9226;47.858;9.594;2022-09-09T12:49:37;95034.56;;;24.03;45.52
18201;BME280;9226;47.858;9.594;2022-09-09T12:52:07;95025.88;;;23.95;47.34
18201;BME280;9226;47.858;9.594;2022-09-09T12:54:36;95028.03;;;24.11;46.53
18201;BME280;9226;47.858;9.594;2022-09-09T12:57:03;95020.97;;;24.10;47.62
18201;BME280;9226;47.858;9.594;2022-09-09T12:59:37;95019.22;;;23.91;48.91
18201;BME280;9226;47.858;9.594;2022-09-09T13:02:25;95020.78;;;24.05;45.96
18201;BME280;9226;47.858;9.594;2022-09-09T13:04:51;95002.31;;;23.95;44.56
18201;BME280;9226;47.858;9.594;2022-09-09T13:07:19;95004.59;;;23.98;43.67
18201;BME280;9226;47.858;9.594;2022-09-09T13:09:46;94994.84;;;23.91;44.10
18201;BME280;9226;47.858;9.594;2022-09-09T13:12:29;94999.66;;;23.89;43.90
18201;BME280;9226;47.858;9.594;2022-09-09T13:14:56;94995.34;;;23.74;43.64
18201;BME280;9226;47.858;9.594;2022-09-09T13:17:26;94988.66;;;23.77;44.29
18201;BME280;9226;47.858;9.594;2022-09-09T13:19:56;94988.66;;;23.77;44.65
18201;BME280;9226;47.858;9.594;2022-09-09T13:22:34;94984.88;;;23.46;43.01
18201;BME280;9226;47.858;9.594;2022-09-09T13:27:53;94985.00;;;23.19;44.88
18201;BME280;9226;47.858;9.594;2022-09-09T13:35:51;94982.13;;;23.01;43.95
18201;BME280;9226;47.858;9.594;2022-09-09T13:38:18;94981.31;;;22.93;44.46
18201;BME280;9226;47.858;9.594;2022-09-09T13:41:02;94969.41;;;23.15;44.34
18201;BME280;9226;47.858;9.594;2022-09-09T13:43:35;94979.00;;;22.97;43.83
18201;BME280;9226;47.858;9.594;2022-09-09T13:46:22;94970.44;;;23.07;43.95
18201;BME280;9226;47.858;9.594;2022-09-09T13:48:57;94961.34;;;22.94;43.57
18201;BME280;9226;47.858;9.594;2022-09-09T13:51:33;94971.53;;;22.92;44.38
18201;BME280;9226;47.858;9.594;2022-09-09T13:53:59;94961.34;;;22.88;43.21
18201;BME280;9226;47.858;9.594;2022-09-09T13:56:25;94965.13;;;22.80;43.44
18201;BME280;9226;47.858;9.594;2022-09-09T13:58:51;94954.94;;;22.75;43.76
18201;BME280;9226;47.858;9.594;2022-09-09T14:01:16;94959.34;;;22.70;44.03
18201;BME280;9226;47.858;9.594;2022-09-09T14:03:42;94954.31;;;22.73;44.39
18201;BME280;9226;47.858;9.594;2022-09-09T14:06:09;94965.94;;;22.87;44.66
18201;BME280;9226;47.858;9.594;2022-09-09T14:08:35;94958.25;;;22.84;44.96
18201;BME280;9226;47.858;9.594;2022-09-09T14:11:05;94960.13;;;22.84;44.13
18201;BME280;9226;47.858;9.594;2022-09-09T14:13:32;94963.06;;;22.82;43.79
18201;BME280;9226;47.858;9.594;2022-09-09T14:15:57;94968.41;;;22.95;44.68
18201;BME280;9226;47.858;9.594;2022-09-09T14:18:23;94956.72;;;23.02;43.52
18201;BME280;9226;47.858;9.594;2022-09-09T14:20:50;94956.94;;;23.00;44.13
18201;BME280;9226;47.858;9.594;2022-09-09T14:23:16;94955.69;;;23.09;43.52
18201;BME280;9226;47.858;9.594;2022-09-09T14:25:43;94960.91;;;23.04;43.83
18201;BME280;9226;47.858;9.594;2022-09-09T14:28:10;94961.69;;;23.18;44.03
18201;BME280;9226;47.858;9.594;2022-09-09T14:30:38;94953.38;;;23.13;44.53
18201;BME280;9226;47.858;9.594;2022-09-09T14:33:04;94953.06;;;22.83;43.86
18201;BME280;9226;47.858;9.594;2022-09-09T14:35:29;94950.53;;;22.94;43.87
18201;BME280;9226;47.858;9.594;2022-09-09T14:37:55;94950.53;;;22.94;44.42
18201;BME280;9226;47.858;9.594;2022-09-09T14:40:21;94950.69;;;23.06;45.28
18201;BME280;9226;47.858;9.594;2022-09-09T14:42:47;94957.34;;;23.17;45.27
18201;BME280;9226;47.858;9.594;2022-09-09T14:45:12;94944.44;;;23.06;44.86
18201;BME280;9226;47.858;9.594;2022-09-09T14:47:38;94944.78;;;23.23;45.72
18201;BME280;9226;47.858;9.594;2022-09-09T14:50:04;94941.66;;;23.26;45.33
18201;BME280;9226;47.858;9.594;2022-09-09T14:52:30;94941.75;;;23.06;45.10
18201;BME280;9226;47.858;9.594;2022-09-09T14:54:56;94938.22;;;23.12;45.77
18201;BME280;9226;47.858;9.594;2022-09-09T14:57:22;94943.19;;;23.08;45.72
18201;BME280;9226;47.858;9.594;2022-09-09T14:59:47;94945.47;;;23.05;45.76
18201;BME280;9226;47.858;9.594;2022-09-09T15:02:15;94948.63;;;23.08;46.29
18201;BME280;9226;47.858;9.594;2022-09-09T15:04:41;94958.44;;;22.89;47.66
18201;BME280;9226;47.858;9.594;2022-09-09T15:07:07;94956.03;;;22.68;47.95
18201;BME280;9226;47.858;9.594;2022-09-09T15:09:32;94957.44;;;22.77;48.32
18201;BME280;9226;47.858;9.594;2022-09-09T15:11:57;94955.66;;;22.31;49.56
18201;BME280;9226;47.858;9.594;2022-09-09T15:14:23;94957.72;;;22.49;49.67
18201;BME280;9226;47.858;9.594;2022-09-09T15:16:48;94955.66;;;22.31;50.51
18201;BME280;9226;47.858;9.594;2022-09-09T15:19:14;94955.88;;;22.43;50.52
18201;BME280;9226;47.858;9.594;2022-09-09T15:21:39;94953.97;;;22.23;50.71
18201;BME280;9226;47.858;9.594;2022-09-09T15:24:05;94953.16;;;22.22;51.68
18201;BME280;9226;47.858;9.594;2022-09-09T15:26:33;94954.63;;;22.32;51.51